Time;durP1;ratioP1;P1;durP2;ratioP2;P2;SDS_P1;SDS_P2;PMS_P1;PMS_P2;Temp;Humidity;BMP_temperature;BMP_pressure;BME280_temperature;BME280_humidity;BME280_pressure;Samples;Min_cycle;Max_cycle;Signal;HPM_P1;HPM_P2
2023/05/28 00:00:06;;;;;;;7.32;4.47;;;;;;;;;;6249908;28;20135;-78
2023/05/28 00:03:17;;;;;;;6.97;3.85;;;;;;;;;;6254579;28;20048;-80
2023/05/28 00:06:19;;;;;;;11.10;4.53;;;;;;;;;;6253886;28;20925;-80
2023/05/28 00:09:21;;;;;;;10.90;4.70;;;;;;;;;;6252707;28;20072;-79
2023/05/28 00:12:23;;;;;;;7.15;4.53;;;;;;;;;;6253223;28;20045;-80
2023/05/28 00:15:25;;;;;;;10.18;4.40;;;;;;;;;;6251198;28;20056;-79
2023/05/28 00:18:28;;;;;;;11.32;4.50;;;;;;;;;;6251904;28;20049;-78
2023/05/28 00:21:32;;;;;;;9.43;4.18;;;;;;;;;;6252600;28;20045;-79
2023/05/28 00:24:35;;;;;;;8.90;4.25;;;;;;;;;;6249147;28;20048;-79
2023/05/28 00:27:37;;;;;;;8.80;4.68;;;;;;;;;;6252806;28;20045;-79
2023/05/28 00:30:39;;;;;;;10.83;4.50;;;;;;;;;;6269373;28;20045;-78
2023/05/28 00:33:40;;;;;;;8.63;4.47;;;;;;;;;;6259858;28;20525;-79
2023/05/28 00:36:42;;;;;;;11.48;4.68;;;;;;;;;;6259821;28;20499;-79
2023/05/28 00:39:44;;;;;;;10.07;4.28;;;;;;;;;;6255703;28;20182;-78
2023/05/28 00:42:45;;;;;;;9.63;4.57;;;;;;;;;;6252949;28;20065;-78
2023/05/28 00:45:50;;;;;;;8.75;4.30;;;;;;;;;;6248552;28;20060;-79
2023/05/28 00:48:53;;;;;;;7.85;4.05;;;;;;;;;;6248734;28;20041;-79
2023/05/28 00:51:56;;;;;;;7.40;4.28;;;;;;;;;;6242677;28;20056;-79
2023/05/28 00:54:58;;;;;;;11.15;4.68;;;;;;;;;;6270805;28;20042;-79
2023/05/28 00:58:05;;;;;;;7.63;3.80;;;;;;;;;;6257045;28;20671;-78
2023/05/28 01:01:08;;;;;;;9.60;4.65;;;;;;;;;;6267174;28;20049;-79
2023/05/28 01:04:11;;;;;;;7.88;4.40;;;;;;;;;;6250874;28;20041;-78
2023/05/28 01:07:13;;;;;;;8.30;4.22;;;;;;;;;;6249768;28;20043;-77
2023/05/28 01:10:14;;;;;;;9.43;4.22;;;;;;;;;;6243530;28;20634;-79
2023/05/28 01:13:16;;;;;;;9.40;4.40;;;;;;;;;;6251882;28;20090;-77
2023/05/28 01:16:18;;;;;;;9.55;4.32;;;;;;;;;;6251269;28;20077;-79
2023/05/28 01:19:26;;;;;;;11.53;4.70;;;;;;;;;;6253343;28;20474;-79
2023/05/28 01:22:33;;;;;;;8.93;4.18;;;;;;;;;;6252557;28;20459;-79
2023/05/28 01:25:38;;;;;;;12.57;5.07;;;;;;;;;;6269961;28;20059;-79
2023/05/28 01:28:48;;;;;;;11.35;4.90;;;;;;;;;;6272573;28;20131;-79
2023/05/28 01:31:51;;;;;;;8.73;4.55;;;;;;;;;;6260257;28;20041;-78
2023/05/28 01:34:53;;;;;;;10.40;4.95;;;;;;;;;;6253111;28;20041;-79
2023/05/28 01:37:58;;;;;;;8.18;4.45;;;;;;;;;;6252755;28;20040;-78
2023/05/28 01:41:00;;;;;;;10.50;5.13;;;;;;;;;;6254788;28;20046;-78
2023/05/28 01:44:03;;;;;;;14.57;5.45;;;;;;;;;;6266273;28;20041;-77
2023/05/28 01:47:05;;;;;;;14.85;5.70;;;;;;;;;;6272202;28;20048;-77
2023/05/28 01:50:08;;;;;;;12.02;5.53;;;;;;;;;;6263635;28;20048;-78
2023/05/28 01:53:11;;;;;;;10.32;4.53;;;;;;;;;;6264024;28;20557;-79
2023/05/28 01:56:13;;;;;;;9.07;4.80;;;;;;;;;;6261836;28;20041;-77
2023/05/28 01:59:16;;;;;;;10.00;5.20;;;;;;;;;;6251548;28;20415;-76
2023/05/28 02:02:21;;;;;;;14.13;5.25;;;;;;;;;;6254181;28;20111;-77
2023/05/28 02:05:22;;;;;;;9.70;4.93;;;;;;;;;;6253391;28;20187;-78
2023/05/28 02:08:24;;;;;;;8.82;4.78;;;;;;;;;;6260196;28;20072;-79
2023/05/28 02:11:26;;;;;;;10.13;4.70;;;;;;;;;;6260426;28;20036;-80
2023/05/28 02:14:30;;;;;;;7.20;4.72;;;;;;;;;;6252308;28;20718;-78
2023/05/28 02:17:32;;;;;;;8.98;5.20;;;;;;;;;;6257482;28;20063;-76
2023/05/28 02:20:34;;;;;;;11.40;5.00;;;;;;;;;;6251862;28;20184;-79
2023/05/28 02:23:39;;;;;;;9.50;5.00;;;;;;;;;;6244473;28;20057;-79
2023/05/28 02:26:41;;;;;;;9.07;4.75;;;;;;;;;;6256541;28;20052;-78
2023/05/28 02:29:43;;;;;;;8.35;5.13;;;;;;;;;;6271297;28;20049;-77
2023/05/28 02:32:45;;;;;;;8.82;4.78;;;;;;;;;;6251102;28;20553;-78
2023/05/28 02:35:46;;;;;;;9.45;5.00;;;;;;;;;;6270258;28;20079;-77
2023/05/28 02:38:48;;;;;;;8.13;4.57;;;;;;;;;;6252419;28;20048;-78
2023/05/28 02:41:50;;;;;;;10.25;5.15;;;;;;;;;;6258896;28;20053;-79
2023/05/28 02:44:51;;;;;;;8.27;4.43;;;;;;;;;;6254832;28;20046;-79
2023/05/28 02:47:56;;;;;;;8.77;4.68;;;;;;;;;;6260110;28;20746;-78
2023/05/28 02:50:57;;;;;;;9.25;5.00;;;;;;;;;;6259004;28;20053;-79
2023/05/28 02:54:18;;;;;;;9.02;4.90;;;;;;;;;;6250345;28;20511;-77
2023/05/28 02:57:21;;;;;;;10.43;4.78;;;;;;;;;;6251683;28;20073;-79
2023/05/28 03:00:24;;;;;;;13.93;4.97;;;;;;;;;;6253608;28;20040;-81
2023/05/28 03:03:26;;;;;;;8.88;4.70;;;;;;;;;;6257146;28;20079;-78
2023/05/28 03:06:28;;;;;;;10.20;4.57;;;;;;;;;;6256031;28;20045;-77
2023/05/28 03:09:30;;;;;;;10.18;4.80;;;;;;;;;;6252041;28;20082;-80
2023/05/28 03:12:31;;;;;;;7.47;4.65;;;;;;;;;;6258194;28;20051;-80
2023/05/28 03:15:33;;;;;;;7.40;4.30;;;;;;;;;;6256384;28;20052;-78
2023/05/28 03:18:35;;;;;;;8.70;4.75;;;;;;;;;;6256675;28;20086;-79
2023/05/28 03:21:38;;;;;;;9.60;4.67;;;;;;;;;;6259897;28;20506;-77
2023/05/28 03:24:40;;;;;;;11.23;5.18;;;;;;;;;;6249583;28;20564;-80
2023/05/28 03:27:45;;;;;;;11.02;5.45;;;;;;;;;;6259012;28;20626;-79
2023/05/28 03:30:48;;;;;;;10.48;5.15;;;;;;;;;;6261954;28;20045;-77
2023/05/28 03:33:49;;;;;;;8.57;4.90;;;;;;;;;;6262920;28;20052;-78
2023/05/28 03:36:51;;;;;;;11.00;4.88;;;;;;;;;;6265895;28;20055;-78
2023/05/28 03:39:53;;;;;;;9.45;4.47;;;;;;;;;;6263079;28;20418;-79
2023/05/28 03:42:56;;;;;;;12.32;5.10;;;;;;;;;;6264400;28;20672;-79
2023/05/28 03:45:58;;;;;;;9.00;4.35;;;;;;;;;;6257927;28;20052;-78
2023/05/28 03:48:59;;;;;;;8.27;4.53;;;;;;;;;;6262993;28;20075;-77
2023/05/28 03:52:03;;;;;;;7.75;4.50;;;;;;;;;;6265691;28;20072;-78
2023/05/28 03:55:15;;;;;;;9.35;4.43;;;;;;;;;;6277734;28;20045;-77
2023/05/28 03:58:18;;;;;;;7.50;4.80;;;;;;;;;;6258638;28;20083;-77
2023/05/28 04:01:19;;;;;;;9.27;4.72;;;;;;;;;;6277459;28;20049;-76
2023/05/28 04:04:21;;;;;;;10.43;5.28;;;;;;;;;;6259474;28;20112;-79
2023/05/28 04:07:23;;;;;;;7.53;4.70;;;;;;;;;;6263465;28;20064;-79
2023/05/28 04:10:25;;;;;;;11.57;5.13;;;;;;;;;;6254512;28;20037;-79
2023/05/28 04:13:27;;;;;;;10.25;5.38;;;;;;;;;;6273508;28;20044;-79
2023/05/28 04:16:29;;;;;;;9.68;4.90;;;;;;;;;;6264377;28;20055;-79
2023/05/28 04:19:30;;;;;;;9.25;4.70;;;;;;;;;;6268240;28;20049;-77
2023/05/28 04:22:33;;;;;;;8.10;4.78;;;;;;;;;;6264231;28;20044;-79
2023/05/28 04:25:36;;;;;;;10.63;4.80;;;;;;;;;;6261595;28;20690;-79
2023/05/28 04:28:39;;;;;;;11.30;4.93;;;;;;;;;;6275792;28;20421;-76
2023/05/28 04:31:40;;;;;;;11.57;4.50;;;;;;;;;;6262492;28;20037;-79
2023/05/28 04:34:42;;;;;;;11.25;5.22;;;;;;;;;;6254329;28;20049;-79
2023/05/28 04:37:45;;;;;;;9.48;4.80;;;;;;;;;;6252506;28;20048;-76
2023/05/28 04:40:49;;;;;;;8.55;5.20;;;;;;;;;;6264505;28;20044;-79
2023/05/28 04:43:51;;;;;;;;;;;;;;;;;;6262426;28;20056;-79
2023/05/28 04:46:52;;;;;;;8.25;4.35;;;;;;;;;;6259899;28;19920;-80
2023/05/28 04:49:57;;;;;;;8.55;4.93;;;;;;;;;;6259720;28;20124;-80
2023/05/28 04:52:58;;;;;;;8.50;4.95;;;;;;;;;;6260212;28;20037;-80
2023/05/28 04:56:00;;;;;;;8.30;5.40;;;;;;;;;;6257228;28;20056;-78
2023/05/28 04:59:04;;;;;;;8.67;5.00;;;;;;;;;;6256081;28;20391;-79
2023/05/28 05:02:09;;;;;;;9.80;5.18;;;;;;;;;;6263864;28;20057;-79
2023/05/28 05:05:12;;;;;;;9.32;4.55;;;;;;;;;;6265353;28;20049;-80
2023/05/28 05:08:16;;;;;;;9.23;4.97;;;;;;;;;;6261087;28;20052;-79
2023/05/28 05:11:20;;;;;;;10.05;4.55;;;;;;;;;;6262403;28;20048;-79
2023/05/28 05:14:21;;;;;;;8.45;4.80;;;;;;;;;;6264493;28;20056;-78
2023/05/28 05:17:23;;;;;;;9.23;5.35;;;;;;;;;;6245127;28;20056;-79
2023/05/28 05:20:26;;;;;;;11.70;5.20;;;;;;;;;;6272689;28;20049;-80
2023/05/28 05:23:28;;;;;;;9.57;5.00;;;;;;;;;;6240072;28;20046;-78
2023/05/28 05:26:30;;;;;;;8.02;4.28;;;;;;;;;;6273602;28;20049;-78
2023/05/28 05:29:32;;;;;;;8.90;5.20;;;;;;;;;;6250642;28;20045;-79
2023/05/28 05:32:34;;;;;;;9.50;5.10;;;;;;;;;;6254151;28;20037;-78
2023/05/28 05:35:36;;;;;;;9.30;4.88;;;;;;;;;;6257067;28;20426;-77
2023/05/28 05:38:58;;;;;;;14.05;4.88;;;;;;;;;;6263142;28;20084;-79
2023/05/28 05:42:11;;;;;;;9.35;5.05;;;;;;;;;;6260015;28;20045;-80
2023/05/28 05:45:17;;;;;;;8.98;5.40;;;;;;;;;;6258477;28;20072;-79
2023/05/28 05:48:19;;;;;;;8.10;4.90;;;;;;;;;;6274168;28;20041;-78
2023/05/28 05:51:23;;;;;;;8.48;4.70;;;;;;;;;;6253700;28;20064;-80
2023/05/28 05:54:25;;;;;;;10.05;4.68;;;;;;;;;;6252242;28;20045;-79
2023/05/28 05:57:27;;;;;;;8.88;4.60;;;;;;;;;;6262204;28;20041;-79
2023/05/28 06:00:29;;;;;;;11.17;5.27;;;;;;;;;;6261337;28;20044;-76
2023/05/28 06:03:33;;;;;;;7.72;4.50;;;;;;;;;;6260395;28;20414;-79
2023/05/28 06:06:44;;;;;;;8.68;4.38;;;;;;;;;;6259726;28;20041;-78
2023/05/28 06:10:05;;;;;;;9.27;4.55;;;;;;;;;;6256404;28;20503;-78
2023/05/28 06:13:09;;;;;;;7.70;4.00;;;;;;;;;;6255278;28;20087;-80
2023/05/28 06:16:11;;;;;;;10.10;4.75;;;;;;;;;;6259315;28;20057;-80
2023/05/28 06:19:14;;;;;;;;;;;;;;;;;;6276713;28;20048;-80
2023/05/28 06:22:15;;;;;;;8.07;4.00;;;;;;;;;;6271156;28;19921;-80
2023/05/28 06:25:21;;;;;;;9.25;4.30;;;;;;;;;;6253188;28;20161;-76
2023/05/28 06:28:24;;;;;;;9.50;4.38;;;;;;;;;;6262659;28;20045;-77
2023/05/28 06:31:27;;;;;;;6.63;3.85;;;;;;;;;;6266814;28;20041;-77
2023/05/28 06:34:29;;;;;;;9.65;4.40;;;;;;;;;;6269311;28;20048;-79
2023/05/28 06:37:31;;;;;;;6.90;4.28;;;;;;;;;;6275306;28;20047;-77
2023/05/28 06:40:33;;;;;;;6.82;3.80;;;;;;;;;;6274018;28;20037;-78
2023/05/28 06:43:36;;;;;;;7.45;3.72;;;;;;;;;;6260766;28;20495;-80
2023/05/28 06:47:04;;;;;;;8.20;3.78;;;;;;;;;;6261358;28;20061;-78
2023/05/28 06:50:06;;;;;;;6.32;3.85;;;;;;;;;;6255190;28;20041;-78
2023/05/28 06:53:08;;;;;;;8.67;3.77;;;;;;;;;;6259446;28;20056;-77
2023/05/28 06:56:10;;;;;;;9.45;4.05;;;;;;;;;;6257862;28;20432;-79
2023/05/28 06:59:18;;;;;;;6.70;3.38;;;;;;;;;;6259303;28;20040;-76
2023/05/28 07:02:55;;;;;;;8.32;3.88;;;;;;;;;;6245544;28;20499;-79
2023/05/28 07:06:19;;;;;;;6.15;3.25;;;;;;;;;;6259610;28;20041;-80
2023/05/28 07:09:21;;;;;;;5.53;3.13;;;;;;;;;;6259148;28;20061;-79
2023/05/28 07:12:23;;;;;;;5.85;3.17;;;;;;;;;;6247340;28;20042;-79
2023/05/28 07:15:28;;;;;;;8.35;3.17;;;;;;;;;;6261689;28;20068;-77
2023/05/28 07:18:30;;;;;;;9.03;3.33;;;;;;;;;;6273425;28;20093;-77
2023/05/28 07:21:32;;;;;;;8.27;3.15;;;;;;;;;;6259631;28;20091;-77
2023/05/28 07:24:34;;;;;;;6.87;3.37;;;;;;;;;;6274472;28;20043;-76
2023/05/28 07:27:36;;;;;;;6.93;3.40;;;;;;;;;;6251366;28;20531;-79
2023/05/28 07:30:38;;;;;;;5.15;3.00;;;;;;;;;;6280867;28;20097;-78
2023/05/28 07:33:41;;;;;;;6.75;3.40;;;;;;;;;;6286664;28;20932;-77
2023/05/28 07:36:43;;;;;;;6.68;3.22;;;;;;;;;;6288759;28;20064;-80
2023/05/28 07:39:47;;;;;;;6.93;2.90;;;;;;;;;;6280289;28;20048;-79
2023/05/28 07:42:49;;;;;;;7.05;2.97;;;;;;;;;;6285381;28;20503;-80
2023/05/28 07:45:51;;;;;;;5.53;3.10;;;;;;;;;;6293083;28;20037;-79
2023/05/28 07:48:54;;;;;;;7.32;3.53;;;;;;;;;;6266529;28;20041;-78
2023/05/28 07:52:13;;;;;;;6.47;2.80;;;;;;;;;;6283270;28;20051;-78
2023/05/28 07:55:16;;;;;;;4.03;2.50;;;;;;;;;;6263793;28;20040;-81
2023/05/28 07:58:18;;;;;;;6.00;3.00;;;;;;;;;;6257566;28;20040;-78
2023/05/28 08:01:20;;;;;;;7.68;2.95;;;;;;;;;;6266711;28;20057;-79
2023/05/28 08:04:22;;;;;;;6.83;3.00;;;;;;;;;;6256685;28;20115;-79
2023/05/28 08:07:24;;;;;;;6.22;3.10;;;;;;;;;;6261027;28;20411;-78
2023/05/28 08:10:26;;;;;;;5.35;3.08;;;;;;;;;;6257957;28;20045;-78
2023/05/28 08:13:28;;;;;;;7.55;3.17;;;;;;;;;;6274075;28;20045;-80
2023/05/28 08:16:32;;;;;;;6.80;2.95;;;;;;;;;;6269717;28;20071;-77
2023/05/28 08:19:56;;;;;;;6.78;2.97;;;;;;;;;;6259885;28;20064;-78
2023/05/28 08:23:23;;;;;;;7.43;3.08;;;;;;;;;;6256771;28;20091;-79
2023/05/28 08:26:27;;;;;;;5.88;3.00;;;;;;;;;;6275625;28;20041;-79
2023/05/28 08:29:30;;;;;;;5.57;3.15;;;;;;;;;;6271924;28;20128;-78
2023/05/28 08:32:37;;;;;;;5.80;2.78;;;;;;;;;;6257300;28;20049;-77
2023/05/28 08:35:39;;;;;;;6.07;3.25;;;;;;;;;;6258093;28;20400;-77
2023/05/28 08:38:41;;;;;;;;;;;;;;;;;;6252678;28;20517;-77
2023/05/28 08:41:44;;;;;;;5.68;2.92;;;;;;;;;;6255785;28;19936;-77
2023/05/28 08:44:47;;;;;;;5.32;2.83;;;;;;;;;;6256865;28;20044;-74
2023/05/28 08:47:51;;;;;;;5.03;2.65;;;;;;;;;;6265582;28;20507;-75
2023/05/28 08:50:57;;;;;;;4.90;2.80;;;;;;;;;;6260074;28;20060;-73
2023/05/28 08:54:08;;;;;;;6.05;2.90;;;;;;;;;;6260627;28;20045;-75
2023/05/28 08:57:11;;;;;;;6.25;3.20;;;;;;;;;;6258568;28;20052;-74
2023/05/28 09:00:21;;;;;;;5.32;2.85;;;;;;;;;;6252782;28;20496;-76
2023/05/28 09:03:58;;;;;;;5.28;2.78;;;;;;;;;;6280457;28;20049;-74
2023/05/28 09:07:10;;;;;;;6.03;2.88;;;;;;;;;;6272878;28;20115;-72
2023/05/28 09:10:21;;;;;;;5.43;2.90;;;;;;;;;;6254553;28;20041;-74
2023/05/28 09:13:25;;;;;;;4.43;3.08;;;;;;;;;;6270612;28;20414;-76
2023/05/28 09:16:26;;;;;;;6.35;2.85;;;;;;;;;;6266692;28;20121;-75
2023/05/28 09:19:36;;;;;;;4.93;2.90;;;;;;;;;;6252696;28;20041;-77
2023/05/28 09:22:38;;;;;;;5.68;3.03;;;;;;;;;;6254526;28;20053;-74
2023/05/28 09:25:56;;;;;;;4.72;2.83;;;;;;;;;;6256708;28;20037;-74
2023/05/28 09:29:11;;;;;;;5.65;2.90;;;;;;;;;;6257690;28;20651;-74
2023/05/28 09:32:18;;;;;;;5.13;2.83;;;;;;;;;;6257275;28;20049;-75
2023/05/28 09:35:20;;;;;;;6.47;2.75;;;;;;;;;;6256061;28;20566;-77
2023/05/28 09:38:24;;;;;;;5.93;3.30;;;;;;;;;;6253626;28;20048;-74
2023/05/28 09:41:33;;;;;;;6.35;3.05;;;;;;;;;;6262856;28;20041;-76
2023/05/28 09:44:37;;;;;;;6.85;3.20;;;;;;;;;;6255445;28;20114;-74
2023/05/28 09:47:43;;;;;;;26.63;20.23;;;;;;;;;;6257920;28;20398;-79
2023/05/28 09:50:46;;;;;;;7.70;3.30;;;;;;;;;;6247075;28;20458;-77
2023/05/28 09:53:50;;;;;;;57.13;37.28;;;;;;;;;;6257934;28;20129;-75
2023/05/28 09:56:53;;;;;;;5.32;3.08;;;;;;;;;;6252289;28;20049;-74
2023/05/28 09:59:56;;;;;;;9.75;4.40;;;;;;;;;;6257316;28;20045;-75
2023/05/28 10:03:12;;;;;;;7.78;3.42;;;;;;;;;;6259118;28;20053;-74
2023/05/28 10:06:18;;;;;;;6.05;3.10;;;;;;;;;;6253132;28;20056;-75
2023/05/28 10:09:20;;;;;;;6.55;3.35;;;;;;;;;;6253033;28;20044;-75
2023/05/28 10:12:25;;;;;;;11.63;8.40;;;;;;;;;;6250630;28;20122;-75
2023/05/28 10:15:27;;;;;;;15.32;8.88;;;;;;;;;;6256816;28;20049;-73
2023/05/28 10:18:29;;;;;;;5.55;4.13;;;;;;;;;;6253486;28;20049;-75
2023/05/28 10:21:31;;;;;;;10.82;3.13;;;;;;;;;;6254847;28;20527;-74
2023/05/28 10:24:33;;;;;;;8.45;5.68;;;;;;;;;;6255066;28;20046;-73
2023/05/28 10:27:37;;;;;;;12.77;8.25;;;;;;;;;;6254525;28;20158;-74
2023/05/28 10:30:39;;;;;;;6.40;3.47;;;;;;;;;;6251076;28;20044;-76
2023/05/28 10:33:42;;;;;;;6.90;5.13;;;;;;;;;;6251140;28;20049;-76
2023/05/28 10:36:53;;;;;;;13.52;9.68;;;;;;;;;;6254405;28;20108;-73
2023/05/28 10:40:08;;;;;;;5.38;3.15;;;;;;;;;;6254113;28;20045;-74
2023/05/28 10:43:43;;;;;;;6.65;3.35;;;;;;;;;;6253424;28;20137;-75
2023/05/28 10:46:45;;;;;;;4.72;3.40;;;;;;;;;;6238539;28;20167;-76
2023/05/28 10:50:20;;;;;;;6.22;2.80;;;;;;;;;;6249194;28;20056;-75
2023/05/28 10:53:23;;;;;;;8.52;3.42;;;;;;;;;;6250743;28;20063;-76
2023/05/28 10:56:26;;;;;;;5.00;2.95;;;;;;;;;;6253411;28;20096;-76
2023/05/28 10:59:45;;;;;;;3.90;3.13;;;;;;;;;;6250590;28;20062;-77
2023/05/28 11:02:51;;;;;;;5.38;3.22;;;;;;;;;;6260632;28;20401;-76
2023/05/28 11:05:53;;;;;;;5.18;3.20;;;;;;;;;;6240063;28;20203;-77
2023/05/28 11:08:56;;;;;;;4.97;3.20;;;;;;;;;;6242716;28;20044;-76
2023/05/28 11:12:00;;;;;;;4.75;3.17;;;;;;;;;;6241446;28;20047;-75
2023/05/28 11:15:02;;;;;;;7.15;3.28;;;;;;;;;;6245612;28;20516;-75
2023/05/28 11:18:04;;;;;;;4.55;3.03;;;;;;;;;;6249616;28;20045;-74
2023/05/28 11:21:08;;;;;;;3.85;2.97;;;;;;;;;;6247441;28;20495;-75
2023/05/28 11:24:10;;;;;;;7.50;3.10;;;;;;;;;;6245264;28;20048;-76
2023/05/28 11:27:12;;;;;;;6.55;3.45;;;;;;;;;;6244720;28;20702;-77
2023/05/28 11:30:16;;;;;;;6.13;3.15;;;;;;;;;;6247725;28;20055;-75
2023/05/28 11:33:18;;;;;;;6.63;3.22;;;;;;;;;;6248657;28;20049;-75
2023/05/28 11:36:20;;;;;;;7.25;3.30;;;;;;;;;;6243797;28;20059;-75
2023/05/28 11:39:22;;;;;;;5.75;3.10;;;;;;;;;;6257532;28;20044;-75
2023/05/28 11:42:25;;;;;;;5.07;3.47;;;;;;;;;;6249020;28;20041;-76
2023/05/28 11:45:27;;;;;;;4.30;3.33;;;;;;;;;;6241697;28;20048;-74
2023/05/28 11:48:29;;;;;;;7.30;3.42;;;;;;;;;;6245073;28;20048;-74
2023/05/28 11:51:30;;;;;;;5.47;3.13;;;;;;;;;;6243595;28;20072;-74
2023/05/28 11:54:32;;;;;;;5.55;3.08;;;;;;;;;;6244821;28;20141;-74
2023/05/28 11:57:36;;;;;;;6.18;3.22;;;;;;;;;;6243799;28;20067;-74
2023/05/28 12:00:38;;;;;;;5.85;3.20;;;;;;;;;;6240211;28;20049;-75
2023/05/28 12:03:40;;;;;;;4.97;3.20;;;;;;;;;;6241093;28;20052;-75
2023/05/28 12:06:52;;;;;;;4.95;2.85;;;;;;;;;;6248386;28;20407;-74
2023/05/28 12:10:08;;;;;;;4.63;3.58;;;;;;;;;;6246253;28;20059;-78
2023/05/28 12:13:12;;;;;;;5.22;3.10;;;;;;;;;;6248191;28;20052;-76
2023/05/28 12:16:15;;;;;;;5.57;3.20;;;;;;;;;;6248187;28;20045;-74
2023/05/28 12:19:17;;;;;;;5.32;3.22;;;;;;;;;;6253204;28;20588;-75
2023/05/28 12:22:18;;;;;;;5.30;3.28;;;;;;;;;;6249508;28;20110;-75
2023/05/28 12:25:21;;;;;;;5.82;3.50;;;;;;;;;;6248391;28;20056;-76
2023/05/28 12:28:23;;;;;;;7.40;4.05;;;;;;;;;;6246710;28;20136;-75
2023/05/28 12:31:28;;;;;;;5.10;3.72;;;;;;;;;;6254351;28;20060;-76
2023/05/28 12:34:30;;;;;;;5.30;3.30;;;;;;;;;;6270889;28;20131;-75
2023/05/28 12:37:32;;;;;;;9.00;3.28;;;;;;;;;;6251594;28;20049;-74
2023/05/28 12:40:34;;;;;;;6.85;3.47;;;;;;;;;;6264403;28;20045;-74
2023/05/28 12:43:36;;;;;;;;;;;;;;;;;;6268912;28;20041;-74
2023/05/28 12:46:38;;;;;;;6.40;3.83;;;;;;;;;;6249343;28;19925;-78
2023/05/28 12:49:40;;;;;;;5.18;3.47;;;;;;;;;;6256955;28;20469;-76
2023/05/28 12:52:42;;;;;;;6.28;3.88;;;;;;;;;;6265321;28;20068;-76
2023/05/28 12:55:44;;;;;;;5.60;3.60;;;;;;;;;;6267719;28;20056;-77
2023/05/28 12:58:46;;;;;;;4.38;3.13;;;;;;;;;;6254778;28;20073;-76
2023/05/28 13:01:48;;;;;;;5.20;3.65;;;;;;;;;;6253712;28;20075;-76
2023/05/28 13:04:50;;;;;;;4.90;3.53;;;;;;;;;;6255564;28;20055;-76
2023/05/28 13:07:52;;;;;;;6.15;3.78;;;;;;;;;;6253240;28;20041;-74
2023/05/28 13:10:53;;;;;;;5.50;3.45;;;;;;;;;;6252214;28;20044;-76
2023/05/28 13:13:55;;;;;;;;;;;;;;;;;;6253694;28;20045;-76
2023/05/28 13:16:58;;;;;;;4.25;2.97;;;;;;;;;;6250613;28;20290;-77
2023/05/28 13:20:00;;;;;;;6.93;3.13;;;;;;;;;;6254509;28;20049;-76
2023/05/28 13:23:02;;;;;;;6.15;3.40;;;;;;;;;;6252425;28;20041;-77
2023/05/28 13:26:04;;;;;;;;;;;;;;;;;;6257154;28;20045;-76
2023/05/28 13:29:06;;;;;;;4.25;2.92;;;;;;;;;;6250830;28;20302;-77
2023/05/28 13:32:08;;;;;;;;;;;;;;;;;;6259647;28;20082;-75
2023/05/28 13:35:11;;;;;;;3.95;3.10;;;;;;;;;;6251570;28;19921;-75
2023/05/28 13:38:13;;;;;;;4.25;3.40;;;;;;;;;;6254236;28;20388;-74
2023/05/28 13:41:15;;;;;;;;;;;;;;;;;;6252198;28;20048;-75
2023/05/28 13:44:17;;;;;;;4.85;3.25;;;;;;;;;;6261228;28;19935;-75
2023/05/28 13:47:20;;;;;;;;;;;;;;;;;;6257724;28;20126;-75
2023/05/28 13:50:22;;;;;;;;;;;;;;;;;;6256150;28;20003;-77
2023/05/28 13:53:24;;;;;;;5.25;3.47;;;;;;;;;;6251858;28;19921;-76
2023/05/28 13:56:26;;;;;;;5.60;3.40;;;;;;;;;;6253986;28;20138;-76
2023/05/28 13:59:28;;;;;;;4.22;3.08;;;;;;;;;;6254768;28;20179;-75
2023/05/28 14:02:30;;;;;;;6.05;3.50;;;;;;;;;;6252555;28;20042;-75
2023/05/28 14:05:31;;;;;;;6.35;3.55;;;;;;;;;;6256917;28;20068;-77
2023/05/28 14:08:33;;;;;;;5.57;3.45;;;;;;;;;;6257123;28;20056;-75
2023/05/28 14:11:35;;;;;;;4.40;3.47;;;;;;;;;;6256261;28;20038;-75
2023/05/28 14:14:56;;;;;;;5.10;3.47;;;;;;;;;;6250684;28;20042;-76
2023/05/28 14:17:58;;;;;;;5.22;3.45;;;;;;;;;;6258226;28;20446;-75
2023/05/28 14:21:00;;;;;;;5.68;3.42;;;;;;;;;;6256666;28;20065;-75
2023/05/28 14:24:02;;;;;;;5.97;3.28;;;;;;;;;;6258618;28;20052;-77
2023/05/28 14:27:04;;;;;;;3.78;3.10;;;;;;;;;;6252471;28;20071;-77
2023/05/28 14:30:06;;;;;;;4.85;3.20;;;;;;;;;;6248093;28;20034;-77
2023/05/28 14:33:09;;;;;;;;;;;;;;;;;;6255681;28;20049;-75
2023/05/28 14:36:10;;;;;;;;;;;;;;;;;;6253738;28;19920;-74
2023/05/28 14:39:16;;;;;;;5.75;3.08;;;;;;;;;;6250010;28;19925;-76
2023/05/28 14:42:18;;;;;;;4.72;3.25;;;;;;;;;;6249705;28;20045;-73
2023/05/28 14:45:19;;;;;;;4.03;3.00;;;;;;;;;;6247451;28;20048;-75
2023/05/28 14:48:21;;;;;;;4.82;3.25;;;;;;;;;;6253659;28;20055;-75
2023/05/28 14:51:23;;;;;;;4.97;3.38;;;;;;;;;;6253252;28;20041;-75
2023/05/28 14:54:25;;;;;;;4.28;2.92;;;;;;;;;;6251951;28;20072;-75
2023/05/28 14:57:27;;;;;;;;;;;;;;;;;;6251537;28;20057;-75
2023/05/28 15:00:29;;;;;;;6.47;3.25;;;;;;;;;;6250651;28;19928;-75
2023/05/28 15:03:31;;;;;;;5.63;3.33;;;;;;;;;;6256057;28;20048;-75
2023/05/28 15:06:33;;;;;;;3.97;3.03;;;;;;;;;;6249844;28;20049;-74
2023/05/28 15:09:35;;;;;;;5.40;3.20;;;;;;;;;;6250898;28;20049;-75
2023/05/28 15:12:36;;;;;;;4.75;3.25;;;;;;;;;;6246162;28;20049;-74
2023/05/28 15:15:38;;;;;;;4.85;3.17;;;;;;;;;;6246852;28;20042;-74
2023/05/28 15:18:40;;;;;;;5.18;3.20;;;;;;;;;;6251227;28;20119;-73
2023/05/28 15:21:42;;;;;;;4.57;3.00;;;;;;;;;;6256041;28;20050;-73
2023/05/28 15:24:46;;;;;;;4.97;2.92;;;;;;;;;;6249754;28;20411;-74
2023/05/28 15:27:47;;;;;;;4.35;3.08;;;;;;;;;;6249254;28;20170;-71
2023/05/28 15:30:49;;;;;;;4.72;2.60;;;;;;;;;;6246096;28;21665;-73
2023/05/28 15:33:51;;;;;;;6.22;3.05;;;;;;;;;;6249543;28;20068;-74
2023/05/28 15:36:53;;;;;;;6.53;3.22;;;;;;;;;;6241291;28;20053;-73
2023/05/28 15:39:57;;;;;;;;;;;;;;;;;;6252281;28;20053;-73
2023/05/28 15:43:03;;;;;;;4.68;2.80;;;;;;;;;;6247231;28;19929;-72
2023/05/28 15:46:05;;;;;;;4.43;2.70;;;;;;;;;;6244655;28;20053;-73
2023/05/28 15:49:07;;;;;;;3.75;2.75;;;;;;;;;;6268997;28;20056;-73
2023/05/28 15:52:09;;;;;;;5.07;2.70;;;;;;;;;;6252528;28;20045;-73
2023/05/28 15:55:11;;;;;;;3.92;2.70;;;;;;;;;;6251608;28;20414;-72
2023/05/28 15:58:13;;;;;;;3.50;2.50;;;;;;;;;;6251691;28;20052;-73
2023/05/28 16:01:17;;;;;;;4.82;2.70;;;;;;;;;;6233116;28;20048;-73
2023/05/28 16:04:20;;;;;;;6.70;2.83;;;;;;;;;;6253536;28;20048;-73
2023/05/28 16:07:22;;;;;;;4.63;2.60;;;;;;;;;;6246261;28;20045;-73
2023/05/28 16:10:24;;;;;;;5.63;2.63;;;;;;;;;;6252705;28;20033;-72
2023/05/28 16:13:28;;;;;;;4.50;2.75;;;;;;;;;;6247146;28;20411;-76
2023/05/28 16:16:33;;;;;;;3.83;2.60;;;;;;;;;;6255965;28;20041;-74
2023/05/28 16:19:35;;;;;;;3.33;2.30;;;;;;;;;;6250918;28;20055;-74
2023/05/28 16:22:38;;;;;;;5.63;2.60;;;;;;;;;;6249249;28;20045;-75
2023/05/28 16:25:41;;;;;;;4.90;2.97;;;;;;;;;;6253138;28;20047;-76
2023/05/28 16:28:43;;;;;;;5.32;3.00;;;;;;;;;;6254581;28;20446;-77
2023/05/28 16:31:47;;;;;;;;;;;;;;;;;;6246705;28;20053;-78
2023/05/28 16:34:50;;;;;;;4.68;2.63;;;;;;;;;;6250066;28;19920;-77
2023/05/28 16:37:51;;;;;;;;;;;;;;;;;;6248449;28;20504;-77
2023/05/28 16:40:53;;;;;;;5.05;2.70;;;;;;;;;;6255001;28;19940;-75
2023/05/28 16:43:56;;;;;;;4.80;2.53;;;;;;;;;;6247685;28;20045;-76
2023/05/28 16:46:59;;;;;;;5.35;2.60;;;;;;;;;;6247230;28;20052;-76
2023/05/28 16:50:05;;;;;;;3.58;2.45;;;;;;;;;;6248190;28;20049;-76
2023/05/28 16:53:10;;;;;;;5.65;2.90;;;;;;;;;;6247651;28;20057;-76
2023/05/28 16:56:12;;;;;;;4.05;2.58;;;;;;;;;;6251126;28;20041;-73
2023/05/28 16:59:14;;;;;;;3.67;2.35;;;;;;;;;;6233505;28;20049;-72
2023/05/28 17:02:16;;;;;;;4.75;2.45;;;;;;;;;;6252417;28;20048;-74
2023/05/28 17:05:18;;;;;;;5.60;2.80;;;;;;;;;;6251391;28;20041;-77
2023/05/28 17:08:20;;;;;;;4.43;2.85;;;;;;;;;;6256253;28;21035;-76
2023/05/28 17:11:22;;;;;;;4.83;2.53;;;;;;;;;;6263652;28;20052;-77
2023/05/28 17:14:23;;;;;;;4.88;2.83;;;;;;;;;;6259500;28;20075;-79
2023/05/28 17:17:25;;;;;;;5.37;2.77;;;;;;;;;;6271462;28;20057;-77
2023/05/28 17:20:27;;;;;;;4.73;2.90;;;;;;;;;;6255310;28;20172;-78
2023/05/28 17:23:29;;;;;;;3.60;2.47;;;;;;;;;;6250010;28;20171;-76
2023/05/28 17:26:32;;;;;;;4.27;2.33;;;;;;;;;;6267221;28;20052;-78
2023/05/28 17:29:36;;;;;;;5.00;2.70;;;;;;;;;;6249380;28;20052;-78
2023/05/28 17:32:38;;;;;;;3.95;2.30;;;;;;;;;;6256105;28;20055;-76
2023/05/28 17:35:40;;;;;;;4.10;2.50;;;;;;;;;;6262824;28;20045;-78
2023/05/28 17:38:42;;;;;;;4.68;2.50;;;;;;;;;;6251806;28;20056;-78
2023/05/28 17:41:43;;;;;;;5.57;2.50;;;;;;;;;;6257303;28;20049;-78
2023/05/28 17:44:45;;;;;;;3.75;2.70;;;;;;;;;;6259681;28;20051;-78
2023/05/28 17:47:47;;;;;;;4.67;3.93;;;;;;;;;;6258297;28;20049;-77
2023/05/28 17:50:52;;;;;;;6.53;2.67;;;;;;;;;;6263263;28;20981;-76
2023/05/28 17:53:53;;;;;;;4.07;2.60;;;;;;;;;;6263542;28;20061;-77
2023/05/28 17:56:55;;;;;;;3.90;2.67;;;;;;;;;;6255561;28;20408;-79
2023/05/28 17:59:57;;;;;;;4.70;2.65;;;;;;;;;;6252786;28;20089;-77
2023/05/28 18:03:00;;;;;;;4.60;2.75;;;;;;;;;;6257198;28;20044;-77
2023/05/28 18:06:03;;;;;;;4.95;2.60;;;;;;;;;;6251595;28;20045;-77
2023/05/28 18:09:05;;;;;;;5.20;2.10;;;;;;;;;;6253616;28;20052;-78
2023/05/28 18:12:06;;;;;;;4.47;2.10;;;;;;;;;;6259601;28;20053;-78
2023/05/28 18:15:09;;;;;;;5.43;2.10;;;;;;;;;;6253635;28;20053;-77
2023/05/28 18:18:11;;;;;;;3.22;2.13;;;;;;;;;;6258952;28;20045;-78
2023/05/28 18:21:13;;;;;;;4.75;2.25;;;;;;;;;;6254394;28;20094;-77
2023/05/28 18:24:15;;;;;;;3.63;1.90;;;;;;;;;;6255231;28;20458;-77